createdAt,value
2022-09-18T00:01:51.593Z,86.56
2022-09-18T00:05:07.639Z,86.95
2022-09-18T00:12:05.594Z,85.90
2022-09-18T00:15:08.828Z,85.98
2022-09-18T00:18:28.406Z,87.49
2022-09-18T00:21:35.782Z,88.21
2022-09-18T00:25:04.036Z,87.34
2022-09-18T00:28:07.861Z,87.82
2022-09-18T00:31:20.611Z,88.64
2022-09-18T00:34:32.032Z,88.02
2022-09-18T00:38:01.355Z,89.01
2022-09-18T00:41:24.216Z,89.13
2022-09-18T00:44:34.178Z,88.48
2022-09-18T00:48:08.921Z,89.08
2022-09-18T00:56:30.436Z,89.58
2022-09-18T01:11:41.087Z,88.77
2022-09-18T01:20:13.990Z,90.39
2022-09-18T01:27:52.882Z,88.52
2022-09-18T02:01:55.584Z,88.99
2022-09-18T02:19:22.420Z,88.32
2022-09-18T02:22:35.965Z,87.17
2022-09-18T02:26:23.130Z,86.46
2022-09-18T02:29:38.055Z,87.35
2022-09-18T02:32:40.500Z,87.93
2022-09-18T02:36:53.566Z,88.39
2022-09-18T02:44:14.166Z,88.66
2022-09-18T03:06:56.746Z,89.42
2022-09-18T03:18:42.252Z,89.29
2022-09-18T03:21:58.927Z,89.19
2022-09-18T03:25:16.479Z,89.54
2022-09-18T03:28:31.162Z,89.49
2022-09-18T03:35:50.894Z,89.79
2022-09-18T03:38:52.679Z,89.81
2022-09-18T03:41:59.126Z,89.93
2022-09-18T03:45:01.394Z,89.82
2022-09-18T03:48:55.131Z,90.05
2022-09-18T03:51:57.977Z,89.61
2022-09-18T03:55:13.271Z,90.04
2022-09-18T03:58:33.567Z,90.38
2022-09-18T04:01:52.309Z,89.97
2022-09-18T04:05:06.364Z,90.18
2022-09-18T04:08:45.063Z,90.19
2022-09-18T04:12:11.800Z,90.31
2022-09-18T04:15:17.862Z,90.60
2022-09-18T04:22:33.468Z,90.37
2022-09-18T04:28:50.357Z,90.93
2022-09-18T04:31:52.242Z,90.62
2022-09-18T04:35:08.418Z,90.61
2022-09-18T04:38:16.324Z,90.90
2022-09-18T04:41:23.941Z,90.74
2022-09-18T04:44:26.014Z,90.80
2022-09-18T04:47:28.257Z,90.97
2022-09-18T04:50:39.108Z,90.60
2022-09-18T04:53:51.831Z,91.00
2022-09-18T04:57:20.106Z,90.79
2022-09-18T05:00:33.564Z,90.95
2022-09-18T05:03:36.915Z,91.22
2022-09-18T05:06:44.567Z,91.30
2022-09-18T05:09:49.970Z,91.41
2022-09-18T05:12:55.100Z,91.27
2022-09-18T05:23:30.258Z,93.14
2022-09-18T05:26:45.035Z,94.01
2022-09-18T05:29:46.768Z,94.42
2022-09-18T05:33:04.085Z,96.41
2022-09-18T05:36:06.595Z,96.72
2022-09-18T05:39:08.990Z,97.10
2022-09-18T05:42:10.963Z,97.38
2022-09-18T05:45:14.067Z,97.51
2022-09-18T05:48:15.820Z,97.75
2022-09-18T05:51:17.819Z,98.02
2022-09-18T05:54:24.020Z,98.03
2022-09-18T05:57:26.421Z,98.03
2022-09-18T06:00:31.768Z,98.23
2022-09-18T06:03:41.953Z,98.22
2022-09-18T06:06:43.629Z,97.67
2022-09-18T06:09:45.824Z,97.47
2022-09-18T06:12:47.583Z,97.31
2022-09-18T06:15:52.476Z,97.26
2022-09-18T06:19:03.626Z,95.61
2022-09-18T06:22:05.347Z,94.46
2022-09-18T06:25:11.480Z,94.08
2022-09-18T06:28:13.607Z,92.60
2022-09-18T06:31:15.417Z,92.87
2022-09-18T06:34:47.232Z,92.63
2022-09-18T06:37:50.207Z,93.03
2022-09-18T06:41:13.914Z,92.31
2022-09-18T06:44:35.878Z,92.81
2022-09-18T06:47:43.216Z,92.63
2022-09-18T06:50:53.377Z,91.92
2022-09-18T06:54:02.165Z,92.38
2022-09-18T06:57:09.006Z,91.93
2022-09-18T07:00:11.657Z,92.13
2022-09-18T07:03:18.995Z,91.82
2022-09-18T07:10:27.892Z,90.39
2022-09-18T07:13:35.501Z,89.57
2022-09-18T07:16:51.279Z,88.35
2022-09-18T07:20:07.220Z,89.13
2022-09-18T07:26:49.148Z,89.51
2022-09-18T07:29:54.304Z,88.81
2022-09-18T07:32:59.036Z,88.53
2022-09-18T07:36:07.685Z,86.09
2022-09-18T07:39:25.164Z,85.99
2022-09-18T07:43:20.745Z,85.93
2022-09-18T07:46:52.169Z,84.28
2022-09-18T07:53:37.924Z,85.94
2022-09-18T08:00:21.930Z,90.68
2022-09-18T08:03:25.794Z,92.61
2022-09-18T08:07:03.400Z,92.25
2022-09-18T08:10:28.054Z,92.23
2022-09-18T08:13:44.127Z,91.58
2022-09-18T08:16:59.905Z,91.47
2022-09-18T08:20:21.114Z,89.75
2022-09-18T08:23:28.522Z,89.36
2022-09-18T08:26:35.854Z,90.38
2022-09-18T08:29:37.846Z,88.48
2022-09-18T08:32:43.630Z,89.98
2022-09-18T08:35:46.765Z,89.91
2022-09-18T08:38:56.885Z,90.66
2022-09-18T08:42:39.244Z,86.86
2022-09-18T08:46:02.810Z,87.57
2022-09-18T08:49:32.417Z,88.12
2022-09-18T08:52:42.486Z,87.45
2022-09-18T08:55:54.969Z,88.06
2022-09-18T08:59:29.350Z,88.14
2022-09-18T09:02:35.263Z,86.10
2022-09-18T09:05:46.659Z,85.48
2022-09-18T09:09:17.981Z,87.55
2022-09-18T09:12:34.598Z,85.89
2022-09-18T09:15:44.406Z,84.32
2022-09-18T09:19:03.224Z,84.73
2022-09-18T09:22:19.710Z,85.85
2022-09-18T09:25:38.497Z,84.04
2022-09-18T09:28:54.712Z,83.17
2022-09-18T09:32:25.820Z,83.42
2022-09-18T09:35:46.361Z,83.67
2022-09-18T09:38:59.069Z,84.69
2022-09-18T09:42:12.715Z,83.70
2022-09-18T09:45:22.824Z,82.05
2022-09-18T09:48:30.411Z,82.61
2022-09-18T09:51:53.495Z,80.87
2022-09-18T09:55:07.307Z,82.82
2022-09-18T09:58:40.701Z,82.49
2022-09-18T10:01:49.274Z,83.30
2022-09-18T10:05:24.524Z,82.36
2022-09-18T10:08:39.451Z,80.70
2022-09-18T10:11:57.398Z,78.99
2022-09-18T10:15:13.648Z,81.83
2022-09-18T10:18:19.495Z,81.35
2022-09-18T10:21:26.514Z,80.28
2022-09-18T10:24:34.012Z,80.13
2022-09-18T10:27:39.576Z,82.27
2022-09-18T10:31:03.300Z,80.88
2022-09-18T10:34:45.724Z,81.10
2022-09-18T10:37:49.767Z,81.46
2022-09-18T10:41:22.917Z,80.63
2022-09-18T10:44:29.714Z,81.37
2022-09-18T10:47:40.732Z,80.26
2022-09-18T10:50:56.307Z,80.97
2022-09-18T10:54:16.251Z,80.30
2022-09-18T10:57:40.118Z,79.88
2022-09-18T11:00:50.184Z,81.61
2022-09-18T11:04:01.415Z,81.10
2022-09-18T11:07:11.283Z,80.85
2022-09-18T11:10:18.508Z,80.41
2022-09-18T11:13:24.309Z,80.92
2022-09-18T11:16:37.785Z,81.38
2022-09-18T11:19:40.279Z,78.36
2022-09-18T11:22:50.709Z,79.40
2022-09-18T11:26:17.404Z,79.48
2022-09-18T11:29:28.690Z,77.24
2022-09-18T11:32:31.753Z,76.46
2022-09-18T11:35:46.156Z,76.20
2022-09-18T11:38:49.202Z,76.81
2022-09-18T11:41:52.430Z,75.65
2022-09-18T11:45:09.527Z,76.84
2022-09-18T11:48:29.567Z,77.01
2022-09-18T11:51:55.266Z,77.04
2022-09-18T11:55:07.838Z,78.53
2022-09-18T11:58:20.171Z,79.45
2022-09-18T12:01:31.541Z,79.62
2022-09-18T12:05:01.825Z,79.96
2022-09-18T12:08:38.643Z,80.69
2022-09-18T12:11:47.900Z,79.76
2022-09-18T12:15:19.627Z,80.56
2022-09-18T12:18:31.194Z,78.41
2022-09-18T12:21:50.081Z,79.80
2022-09-18T12:24:52.853Z,79.52
2022-09-18T12:28:44.318Z,78.05
2022-09-18T12:31:55.959Z,79.55
2022-09-18T12:35:18.417Z,77.98
2022-09-18T12:38:53.076Z,77.87
2022-09-18T12:42:07.464Z,79.13
2022-09-18T12:45:47.109Z,78.48
2022-09-18T12:49:16.219Z,80.11
2022-09-18T12:52:43.482Z,80.07
2022-09-18T12:56:13.549Z,79.71
2022-09-18T12:59:23.980Z,80.20
2022-09-18T13:02:31.498Z,80.29
2022-09-18T13:05:38.271Z,81.58
2022-09-18T13:08:46.772Z,81.29
2022-09-18T13:11:52.562Z,82.20
2022-09-18T13:15:01.284Z,80.71
2022-09-18T13:18:17.986Z,79.44
2022-09-18T13:21:33.495Z,79.23
2022-09-18T13:24:36.703Z,78.39
2022-09-18T13:27:38.620Z,79.53
2022-09-18T13:30:40.789Z,80.31
2022-09-18T13:33:52.201Z,79.07
2022-09-18T13:36:53.963Z,79.20
2022-09-18T13:40:14.316Z,80.31
2022-09-18T13:43:27.872Z,78.25
2022-09-18T13:46:40.577Z,77.46
2022-09-18T13:49:52.103Z,78.53
2022-09-18T13:52:58.913Z,77.56
2022-09-18T13:56:00.588Z,77.84
2022-09-18T13:59:02.606Z,75.74
2022-09-18T14:02:04.398Z,74.38
2022-09-18T14:05:41.215Z,72.40
2022-09-18T14:08:42.901Z,73.01
2022-09-18T14:11:44.565Z,73.18
2022-09-18T14:14:57.607Z,75.11
2022-09-18T14:18:21.102Z,74.76
2022-09-18T14:21:28.972Z,74.92
2022-09-18T14:24:50.285Z,74.20
2022-09-18T14:27:57.032Z,76.43
2022-09-18T14:31:15.582Z,78.11
2022-09-18T14:34:40.008Z,81.23
2022-09-18T14:37:41.627Z,84.16
2022-09-18T14:40:50.579Z,85.91
2022-09-18T14:43:54.452Z,88.97
2022-09-18T14:46:59.331Z,91.73
2022-09-18T14:50:01.024Z,92.25
2022-09-18T14:53:20.664Z,92.33
2022-09-18T14:56:37.050Z,93.32
2022-09-18T14:59:39.715Z,93.26
2022-09-18T15:02:41.418Z,93.92
2022-09-18T15:05:43.125Z,95.67
2022-09-18T15:08:47.450Z,94.71
2022-09-18T15:12:01.873Z,94.94
2022-09-18T15:15:28.064Z,96.68
2022-09-18T15:18:37.996Z,97.99
2022-09-18T15:21:46.811Z,99.59
2022-09-18T15:24:48.836Z,100.00
2022-09-18T15:27:52.706Z,100.00
2022-09-18T15:31:00.594Z,100.00
2022-09-18T15:34:13.730Z,100.00
2022-09-18T15:37:21.940Z,100.00
2022-09-18T15:40:36.387Z,100.00
2022-09-18T15:43:41.194Z,100.00
2022-09-18T15:46:42.924Z,100.00
2022-09-18T15:49:44.636Z,100.00
2022-09-18T15:53:01.733Z,100.00
2022-09-18T15:56:07.056Z,100.00
2022-09-18T15:59:22.434Z,100.00
2022-09-18T16:02:36.038Z,100.00
2022-09-18T16:05:39.363Z,100.00
2022-09-18T16:08:41.110Z,100.00
2022-09-18T16:11:47.165Z,100.00
2022-09-18T16:15:16.862Z,100.00
2022-09-18T16:18:27.220Z,100.00
2022-09-18T16:21:30.404Z,100.00
2022-09-18T16:24:32.451Z,98.71
2022-09-18T16:27:34.254Z,98.86
2022-09-18T16:30:37.403Z,97.81
2022-09-18T16:34:06.260Z,99.02
2022-09-18T16:37:12.285Z,99.22
2022-09-18T16:40:21.522Z,99.07
2022-09-18T16:43:24.994Z,100.00
2022-09-18T16:46:46.107Z,100.00
2022-09-18T16:49:49.357Z,100.00
2022-09-18T16:52:53.040Z,100.00
2022-09-18T16:56:00.612Z,100.00
2022-09-18T16:59:05.129Z,100.00
2022-09-18T17:02:07.440Z,100.00
2022-09-18T17:05:09.348Z,100.00
2022-09-18T17:08:10.967Z,100.00
2022-09-18T17:11:12.886Z,100.00
2022-09-18T17:14:14.551Z,100.00
2022-09-18T17:17:16.324Z,100.00
2022-09-18T17:20:18.685Z,100.00
2022-09-18T17:23:20.352Z,98.81
2022-09-18T17:26:22.909Z,98.93
2022-09-18T17:29:24.647Z,99.55
2022-09-18T17:32:26.370Z,100.00
2022-09-18T17:35:27.985Z,99.95
2022-09-18T17:38:29.572Z,100.00
2022-09-18T17:41:32.494Z,100.00
2022-09-18T17:44:35.407Z,100.00
2022-09-18T17:47:37.051Z,100.00
2022-09-18T17:50:38.739Z,100.00
2022-09-18T17:53:42.585Z,100.00
2022-09-18T17:56:44.418Z,100.00
2022-09-18T17:59:47.684Z,100.00
2022-09-18T18:02:49.241Z,100.00
2022-09-18T18:05:57.713Z,100.00
2022-09-18T18:08:59.366Z,100.00
2022-09-18T18:12:01.976Z,100.00
2022-09-18T18:15:04.611Z,100.00
2022-09-18T18:18:08.710Z,100.00
2022-09-18T18:21:11.173Z,100.00
2022-09-18T18:24:16.317Z,100.00
2022-09-18T18:27:21.486Z,100.00
2022-09-18T18:30:24.243Z,100.00
2022-09-18T18:33:34.952Z,100.00
2022-09-18T18:36:43.291Z,100.00
2022-09-18T18:39:45.302Z,100.00
2022-09-18T18:42:50.127Z,100.00
2022-09-18T18:45:56.511Z,100.00
2022-09-18T18:49:03.632Z,100.00
2022-09-18T18:52:06.878Z,100.00
2022-09-18T18:55:09.513Z,100.00
2022-09-18T18:58:13.970Z,100.00
2022-09-18T19:01:18.163Z,100.00
2022-09-18T19:04:29.776Z,100.00
2022-09-18T19:07:32.581Z,100.00
2022-09-18T19:10:43.399Z,100.00
2022-09-18T19:13:50.661Z,100.00
2022-09-18T19:16:53.957Z,100.00
2022-09-18T19:19:55.737Z,100.00
2022-09-18T19:23:13.643Z,100.00
2022-09-18T19:26:15.347Z,99.78
2022-09-18T19:29:22.140Z,98.78
2022-09-18T19:32:24.120Z,99.21
2022-09-18T19:35:32.409Z,98.96
2022-09-18T19:38:37.131Z,100.00
2022-09-18T19:42:04.038Z,100.00
2022-09-18T19:45:24.687Z,100.00
2022-09-18T19:48:27.476Z,100.00
2022-09-18T19:51:29.717Z,100.00
2022-09-18T19:54:31.624Z,100.00
2022-09-18T19:57:33.205Z,100.00
2022-09-18T20:00:37.014Z,100.00
2022-09-18T20:03:39.846Z,100.00
2022-09-18T20:06:42.465Z,100.00
2022-09-18T20:09:44.148Z,100.00
2022-09-18T20:12:45.766Z,100.00
2022-09-18T20:16:02.971Z,100.00
2022-09-18T20:19:07.593Z,100.00
2022-09-18T20:22:09.263Z,100.00
2022-09-18T20:25:11.404Z,100.00
2022-09-18T20:28:13.021Z,100.00
2022-09-18T20:31:17.062Z,100.00
2022-09-18T20:34:20.220Z,100.00
2022-09-18T20:37:24.208Z,100.00
2022-09-18T20:40:25.997Z,100.00
2022-09-18T20:43:28.401Z,100.00
2022-09-18T20:46:31.591Z,100.00
2022-09-18T20:49:39.741Z,100.00
2022-09-18T20:52:43.781Z,100.00
2022-09-18T20:55:46.647Z,100.00
2022-09-18T20:58:52.158Z,100.00
2022-09-18T21:01:53.854Z,100.00
2022-09-18T21:04:56.202Z,100.00
2022-09-18T21:07:58.214Z,100.00
2022-09-18T21:11:08.913Z,100.00
2022-09-18T21:14:14.926Z,100.00
2022-09-18T21:17:18.928Z,100.00
2022-09-18T21:20:20.969Z,100.00
2022-09-18T21:23:41.219Z,100.00
2022-09-18T21:26:52.244Z,100.00
2022-09-18T21:29:56.466Z,100.00
2022-09-18T21:32:59.130Z,100.00
2022-09-18T21:36:00.786Z,100.00
2022-09-18T21:39:03.619Z,100.00
2022-09-18T21:42:07.354Z,100.00
2022-09-18T21:45:09.326Z,100.00
2022-09-18T21:48:12.875Z,100.00
2022-09-18T21:51:17.045Z,100.00
2022-09-18T21:54:21.450Z,100.00
2022-09-18T21:57:23.135Z,100.00
2022-09-18T22:00:24.702Z,100.00
2022-09-18T22:03:28.802Z,100.00
2022-09-18T22:06:40.677Z,100.00
2022-09-18T22:09:42.883Z,100.00
2022-09-18T22:12:44.534Z,100.00
2022-09-18T22:15:46.144Z,100.00
2022-09-18T22:18:48.517Z,100.00
2022-09-18T22:21:51.381Z,100.00
2022-09-18T22:24:53.145Z,100.00
2022-09-18T22:27:54.724Z,100.00
2022-09-18T22:30:56.562Z,100.00
2022-09-18T22:34:00.516Z,100.00
2022-09-18T22:37:02.598Z,100.00
2022-09-18T22:40:05.780Z,100.00
2022-09-18T22:43:07.456Z,100.00
2022-09-18T22:46:12.946Z,100.00
2022-09-18T22:49:17.334Z,100.00
2022-09-18T22:52:22.005Z,100.00
2022-09-18T22:55:23.632Z,100.00
2022-09-18T22:58:25.224Z,100.00
2022-09-18T23:01:41.554Z,100.00
2022-09-18T23:04:43.355Z,100.00
2022-09-18T23:07:46.809Z,100.00
2022-09-18T23:10:49.086Z,100.00
2022-09-18T23:13:56.579Z,100.00
2022-09-18T23:16:59.880Z,100.00
2022-09-18T23:20:01.911Z,100.00
2022-09-18T23:23:03.519Z,100.00
2022-09-18T23:26:19.441Z,100.00
2022-09-18T23:29:22.891Z,100.00
2022-09-18T23:32:24.543Z,100.00
2022-09-18T23:35:27.122Z,100.00
2022-09-18T23:38:28.780Z,100.00
2022-09-18T23:41:30.522Z,100.00
2022-09-18T23:44:32.522Z,100.00
2022-09-18T23:47:37.173Z,100.00
2022-09-18T23:50:43.285Z,100.00
2022-09-18T23:53:44.846Z,100.00
2022-09-18T23:56:47.260Z,100.00
2022-09-18T23:59:49.902Z,100.00
